sensor_id;sensor_type;location;lat;lon;timestamp;pressure;altitude;pressure_sealevel;temperature;humidity
71457;BME280;59263;48.160;11.752;2023-04-10T00:00:31;96568.72;;;0.89;100.00
71457;BME280;59263;48.160;11.752;2023-04-10T00:02:59;96553.00;;;0.80;100.00
71457;BME280;59263;48.160;11.752;2023-04-10T00:05:27;96528.06;;;0.67;100.00
71457;BME280;59263;48.160;11.752;2023-04-10T00:07:53;96557.97;;;0.83;100.00
71457;BME280;59263;48.160;11.752;2023-04-10T00:10:18;96575.47;;;0.90;100.00
71457;BME280;59263;48.160;11.752;2023-04-10T00:12:44;96572.59;;;0.78;100.00
71457;BME280;59263;48.160;11.752;2023-04-10T00:15:10;96581.16;;;0.77;100.00
71457;BME280;59263;48.160;11.752;2023-04-10T00:17:35;96560.78;;;0.56;100.00
71457;BME280;59263;48.160;11.752;2023-04-10T00:20:01;96574.16;;;0.61;100.00
71457;BME280;59263;48.160;11.752;2023-04-10T00:22:28;96570.81;;;0.59;100.00
71457;BME280;59263;48.160;11.752;2023-04-10T00:24:53;96582.28;;;0.69;100.00
71457;BME280;59263;48.160;11.752;2023-04-10T00:27:18;96545.25;;;0.42;100.00
71457;BME280;59263;48.160;11.752;2023-04-10T00:29:44;96562.94;;;0.45;100.00
71457;BME280;59263;48.160;11.752;2023-04-10T00:32:09;96548.03;;;0.36;100.00
71457;BME280;59263;48.160;11.752;2023-04-10T00:34:35;96522.31;;;0.21;100.00
71457;BME280;59263;48.160;11.752;2023-04-10T00:37:00;96557.28;;;0.38;100.00
71457;BME280;59263;48.160;11.752;2023-04-10T00:39:26;96565.66;;;0.40;100.00
71457;BME280;59263;48.160;11.752;2023-04-10T00:41:51;96546.72;;;0.27;100.00
71457;BME280;59263;48.160;11.752;2023-04-10T00:44:16;96509.41;;;0.06;100.00
71457;BME280;59263;48.160;11.752;2023-04-10T00:46:42;96520.16;;;0.12;100.00
71457;BME280;59263;48.160;11.752;2023-04-10T00:49:07;96546.03;;;0.22;100.00
71457;BME280;59263;48.160;11.752;2023-04-10T00:51:33;96547.25;;;0.13;100.00
71457;BME280;59263;48.160;11.752;2023-04-10T00:53:59;96514.16;;;-0.07;100.00
71457;BME280;59263;48.160;11.752;2023-04-10T00:56:27;96555.91;;;0.09;100.00
71457;BME280;59263;48.160;11.752;2023-04-10T00:58:54;96535.50;;;-0.11;100.00
71457;BME280;59263;48.160;11.752;2023-04-10T01:01:19;96537.22;;;-0.12;100.00
71457;BME280;59263;48.160;11.752;2023-04-10T01:03:45;96547.97;;;-0.05;100.00
71457;BME280;59263;48.160;11.752;2023-04-10T01:09:04;96562.53;;;0.13;100.00
71457;BME280;59263;48.160;11.752;2023-04-10T01:11:54;96532.72;;;-0.05;100.00
71457;BME280;59263;48.160;11.752;2023-04-10T01:17:17;96570.22;;;0.12;100.00
71457;BME280;59263;48.160;11.752;2023-04-10T01:25:37;96540.88;;;-0.19;100.00
71457;BME280;59263;48.160;11.752;2023-04-10T01:28:13;96565.03;;;-0.07;100.00
71457;BME280;59263;48.160;11.752;2023-04-10T01:30:42;96544.84;;;-0.34;100.00
71457;BME280;59263;48.160;11.752;2023-04-10T01:33:11;96542.59;;;-0.41;100.00
71457;BME280;59263;48.160;11.752;2023-04-10T01:35:39;96547.88;;;-0.46;100.00
71457;BME280;59263;48.160;11.752;2023-04-10T01:38:07;96544.59;;;-0.50;100.00
71457;BME280;59263;48.160;11.752;2023-04-10T01:40:37;96544.91;;;-0.57;100.00
71457;BME280;59263;48.160;11.752;2023-04-10T01:43:05;96514.06;;;-0.70;100.00
71457;BME280;59263;48.160;11.752;2023-04-10T01:45:33;96525.66;;;-0.63;100.00
71457;BME280;59263;48.160;11.752;2023-04-10T01:47:59;96541.34;;;-0.53;100.00
71457;BME280;59263;48.160;11.752;2023-04-10T01:50:25;96495.38;;;-0.69;100.00
71457;BME280;59263;48.160;11.752;2023-04-10T01:52:53;96524.34;;;-0.51;100.00
71457;BME280;59263;48.160;11.752;2023-04-10T01:55:19;96509.31;;;-0.57;100.00
71457;BME280;59263;48.160;11.752;2023-04-10T01:57:45;96517.72;;;-0.55;100.00
71457;BME280;59263;48.160;11.752;2023-04-10T02:00:14;96520.78;;;-0.47;100.00
71457;BME280;59263;48.160;11.752;2023-04-10T02:02:41;96510.94;;;-0.55;100.00
71457;BME280;59263;48.160;11.752;2023-04-10T02:05:07;96507.50;;;-0.54;100.00
71457;BME280;59263;48.160;11.752;2023-04-10T02:07:40;96485.81;;;-0.62;100.00
71457;BME280;59263;48.160;11.752;2023-04-10T02:10:28;96511.47;;;-0.46;100.00
71457;BME280;59263;48.160;11.752;2023-04-10T02:13:00;96534.44;;;-0.28;100.00
71457;BME280;59263;48.160;11.752;2023-04-10T02:15:30;96500.47;;;-0.47;100.00
71457;BME280;59263;48.160;11.752;2023-04-10T02:17:58;96512.81;;;-0.38;100.00
71457;BME280;59263;48.160;11.752;2023-04-10T02:20:25;96498.81;;;-0.48;100.00
71457;BME280;59263;48.160;11.752;2023-04-10T02:22:52;96513.19;;;-0.47;100.00
71457;BME280;59263;48.160;11.752;2023-04-10T02:25:17;96477.41;;;-0.64;100.00
71457;BME280;59263;48.160;11.752;2023-04-10T02:27:43;96481.78;;;-0.68;100.00
71457;BME280;59263;48.160;11.752;2023-04-10T02:30:09;96494.06;;;-0.57;100.00
71457;BME280;59263;48.160;11.752;2023-04-10T02:32:35;96537.41;;;-0.38;100.00
71457;BME280;59263;48.160;11.752;2023-04-10T02:35:01;96544.28;;;-0.40;100.00
71457;BME280;59263;48.160;11.752;2023-04-10T02:37:27;96523.66;;;-0.56;100.00
71457;BME280;59263;48.160;11.752;2023-04-10T02:39:52;96506.25;;;-0.65;100.00
71457;BME280;59263;48.160;11.752;2023-04-10T02:42:19;96509.53;;;-0.63;100.00
71457;BME280;59263;48.160;11.752;2023-04-10T02:44:45;96532.97;;;-0.55;100.00
71457;BME280;59263;48.160;11.752;2023-04-10T02:47:11;96512.22;;;-0.66;100.00
71457;BME280;59263;48.160;11.752;2023-04-10T02:49:36;96508.13;;;-0.70;100.00
71457;BME280;59263;48.160;11.752;2023-04-10T02:52:02;96499.94;;;-0.79;100.00
71457;BME280;59263;48.160;11.752;2023-04-10T02:54:27;96514.25;;;-0.76;100.00
71457;BME280;59263;48.160;11.752;2023-04-10T02:56:53;96520.16;;;-0.76;100.00
71457;BME280;59263;48.160;11.752;2023-04-10T02:59:18;96487.19;;;-0.99;100.00
71457;BME280;59263;48.160;11.752;2023-04-10T03:01:46;96499.63;;;-0.93;100.00
71457;BME280;59263;48.160;11.752;2023-04-10T03:04:12;96507.03;;;-0.87;100.00
71457;BME280;59263;48.160;11.752;2023-04-10T03:06:37;96543.56;;;-0.67;100.00
71457;BME280;59263;48.160;11.752;2023-04-10T03:09:03;96483.97;;;-1.04;100.00
71457;BME280;59263;48.160;11.752;2023-04-10T03:11:28;96478.16;;;-1.08;100.00
71457;BME280;59263;48.160;11.752;2023-04-10T03:13:54;96520.75;;;-0.91;100.00
71457;BME280;59263;48.160;11.752;2023-04-10T03:16:22;96483.50;;;-1.14;100.00
71457;BME280;59263;48.160;11.752;2023-04-10T03:18:47;96478.69;;;-1.22;100.00
71457;BME280;59263;48.160;11.752;2023-04-10T03:21:13;96509.25;;;-1.01;100.00
71457;BME280;59263;48.160;11.752;2023-04-10T03:23:38;96513.41;;;-0.99;100.00
71457;BME280;59263;48.160;11.752;2023-04-10T03:26:04;96538.97;;;-0.80;100.00
71457;BME280;59263;48.160;11.752;2023-04-10T03:28:30;96512.50;;;-0.98;100.00
71457;BME280;59263;48.160;11.752;2023-04-10T03:30:56;96501.53;;;-0.98;100.00
71457;BME280;59263;48.160;11.752;2023-04-10T03:33:22;96527.19;;;-0.82;100.00
71457;BME280;59263;48.160;11.752;2023-04-10T03:35:47;96483.50;;;-1.14;100.00
71457;BME280;59263;48.160;11.752;2023-04-10T03:38:13;96535.06;;;-0.88;100.00
71457;BME280;59263;48.160;11.752;2023-04-10T03:40:38;96512.47;;;-0.96;100.00
71457;BME280;59263;48.160;11.752;2023-04-10T03:43:03;96512.47;;;-0.96;100.00
71457;BME280;59263;48.160;11.752;2023-04-10T03:45:29;96503.97;;;-0.95;100.00
71457;BME280;59263;48.160;11.752;2023-04-10T03:47:54;96520.53;;;-0.85;100.00
71457;BME280;59263;48.160;11.752;2023-04-10T03:50:20;96487.28;;;-1.02;100.00
71457;BME280;59263;48.160;11.752;2023-04-10T03:52:45;96498.88;;;-0.95;100.00
71457;BME280;59263;48.160;11.752;2023-04-10T03:55:10;96519.53;;;-0.81;100.00
71457;BME280;59263;48.160;11.752;2023-04-10T03:57:36;96527.06;;;-0.79;100.00
71457;BME280;59263;48.160;11.752;2023-04-10T04:00:02;96508.31;;;-0.99;100.00
71457;BME280;59263;48.160;11.752;2023-04-10T04:02:28;96500.44;;;-1.14;100.00
71457;BME280;59263;48.160;11.752;2023-04-10T04:04:53;96524.38;;;-0.98;100.00
71457;BME280;59263;48.160;11.752;2023-04-10T04:07:19;96500.16;;;-1.07;100.00
71457;BME280;59263;48.160;11.752;2023-04-10T04:09:44;96517.75;;;-1.02;100.00
71457;BME280;59263;48.160;11.752;2023-04-10T04:12:10;96511.84;;;-1.03;100.00
71457;BME280;59263;48.160;11.752;2023-04-10T04:14:35;96492.47;;;-1.05;100.00
71457;BME280;59263;48.160;11.752;2023-04-10T04:17:00;96521.66;;;-0.93;100.00
71457;BME280;59263;48.160;11.752;2023-04-10T04:19:26;96522.50;;;-0.93;100.00
71457;BME280;59263;48.160;11.752;2023-04-10T04:21:51;96508.16;;;-0.94;100.00
71457;BME280;59263;48.160;11.752;2023-04-10T04:24:17;96539.69;;;-0.76;100.00
71457;BME280;59263;48.160;11.752;2023-04-10T04:26:42;96505.72;;;-0.97;100.00
71457;BME280;59263;48.160;11.752;2023-04-10T04:29:07;96504.78;;;-0.94;100.00
71457;BME280;59263;48.160;11.752;2023-04-10T04:31:33;96523.09;;;-0.86;100.00
71457;BME280;59263;48.160;11.752;2023-04-10T04:33:59;96520.84;;;-0.94;100.00
71457;BME280;59263;48.160;11.752;2023-04-10T04:36:24;96538.34;;;-0.86;100.00
71457;BME280;59263;48.160;11.752;2023-04-10T04:38:50;96540.03;;;-0.85;100.00
71457;BME280;59263;48.160;11.752;2023-04-10T04:41:15;96504.97;;;-0.99;100.00
71457;BME280;59263;48.160;11.752;2023-04-10T04:43:41;96525.72;;;-0.88;100.00
71457;BME280;59263;48.160;11.752;2023-04-10T04:46:06;96533.53;;;-0.70;100.00
71457;BME280;59263;48.160;11.752;2023-04-10T04:48:33;96536.97;;;-0.71;100.00
71457;BME280;59263;48.160;11.752;2023-04-10T04:50:59;96535.91;;;-0.66;100.00
71457;BME280;59263;48.160;11.752;2023-04-10T04:53:24;96543.34;;;-0.61;100.00
71457;BME280;59263;48.160;11.752;2023-04-10T04:55:49;96542.34;;;-0.57;100.00
71457;BME280;59263;48.160;11.752;2023-04-10T04:58:15;96545.50;;;-0.51;100.00
71457;BME280;59263;48.160;11.752;2023-04-10T05:00:40;96534.50;;;-0.51;100.00
71457;BME280;59263;48.160;11.752;2023-04-10T05:03:05;96552.84;;;-0.43;100.00
71457;BME280;59263;48.160;11.752;2023-04-10T05:05:31;96550.13;;;-0.38;100.00
71457;BME280;59263;48.160;11.752;2023-04-10T05:07:56;96545.00;;;-0.37;100.00
71457;BME280;59263;48.160;11.752;2023-04-10T05:10:21;96550.59;;;-0.29;100.00
71457;BME280;59263;48.160;11.752;2023-04-10T05:12:47;96543.69;;;-0.25;100.00
71457;BME280;59263;48.160;11.752;2023-04-10T05:15:12;96551.78;;;-0.15;100.00
71457;BME280;59263;48.160;11.752;2023-04-10T05:17:37;96550.53;;;-0.05;100.00
71457;BME280;59263;48.160;11.752;2023-04-10T05:20:03;96535.50;;;-0.11;100.00
71457;BME280;59263;48.160;11.752;2023-04-10T05:22:29;96535.03;;;0.01;100.00
71457;BME280;59263;48.160;11.752;2023-04-10T05:24:55;96553.88;;;0.17;100.00
71457;BME280;59263;48.160;11.752;2023-04-10T05:27:20;96538.59;;;0.17;100.00
71457;BME280;59263;48.160;11.752;2023-04-10T05:29:45;96540.84;;;0.25;100.00
71457;BME280;59263;48.160;11.752;2023-04-10T05:32:11;96548.75;;;0.39;100.00
71457;BME280;59263;48.160;11.752;2023-04-10T05:34:36;96542.44;;;0.48;100.00
71457;BME280;59263;48.160;11.752;2023-04-10T05:37:01;96544.53;;;0.59;100.00
71457;BME280;59263;48.160;11.752;2023-04-10T05:39:27;96539.31;;;0.62;100.00
71457;BME280;59263;48.160;11.752;2023-04-10T05:41:52;96544.75;;;0.75;100.00
71457;BME280;59263;48.160;11.752;2023-04-10T05:44:17;96558.66;;;0.86;100.00
71457;BME280;59263;48.160;11.752;2023-04-10T05:46:43;96556.63;;;0.94;100.00
71457;BME280;59263;48.160;11.752;2023-04-10T05:49:08;96551.09;;;1.04;100.00
71457;BME280;59263;48.160;11.752;2023-04-10T05:51:33;96560.84;;;1.14;100.00
71457;BME280;59263;48.160;11.752;2023-04-10T05:53:58;96554.56;;;1.21;100.00
71457;BME280;59263;48.160;11.752;2023-04-10T05:56:24;96560.78;;;1.35;100.00
71457;BME280;59263;48.160;11.752;2023-04-10T05:58:49;96551.84;;;1.45;100.00
71457;BME280;59263;48.160;11.752;2023-04-10T06:01:14;96556.38;;;1.57;100.00
71457;BME280;59263;48.160;11.752;2023-04-10T06:03:40;96563.47;;;1.69;100.00
71457;BME280;59263;48.160;11.752;2023-04-10T06:06:06;96550.56;;;1.73;100.00
71457;BME280;59263;48.160;11.752;2023-04-10T06:08:31;96557.66;;;1.85;100.00
71457;BME280;59263;48.160;11.752;2023-04-10T06:10:58;96557.00;;;1.99;100.00
71457;BME280;59263;48.160;11.752;2023-04-10T06:13:24;96549.00;;;2.06;100.00
71457;BME280;59263;48.160;11.752;2023-04-10T06:15:51;96561.78;;;2.24;100.00
71457;BME280;59263;48.160;11.752;2023-04-10T06:18:16;96553.59;;;2.34;100.00
71457;BME280;59263;48.160;11.752;2023-04-10T06:20:42;96566.22;;;2.55;100.00
71457;BME280;59263;48.160;11.752;2023-04-10T06:23:07;96560.53;;;2.67;100.00
71457;BME280;59263;48.160;11.752;2023-04-10T06:25:32;96564.09;;;2.80;100.00
71457;BME280;59263;48.160;11.752;2023-04-10T06:27:58;96557.09;;;2.84;100.00
71457;BME280;59263;48.160;11.752;2023-04-10T06:30:23;96558.16;;;2.97;100.00
71457;BME280;59263;48.160;11.752;2023-04-10T06:32:49;96542.47;;;3.03;100.00
71457;BME280;59263;48.160;11.752;2023-04-10T06:35:14;96554.25;;;3.23;100.00
71457;BME280;59263;48.160;11.752;2023-04-10T06:37:41;96545.84;;;3.37;100.00
71457;BME280;59263;48.160;11.752;2023-04-10T06:40:08;96545.25;;;3.48;100.00
71457;BME280;59263;48.160;11.752;2023-04-10T06:42:34;96550.22;;;3.67;100.00
71457;BME280;59263;48.160;11.752;2023-04-10T06:45:00;96545.69;;;3.72;100.00
71457;BME280;59263;48.160;11.752;2023-04-10T06:47:25;96547.97;;;3.92;100.00
71457;BME280;59263;48.160;11.752;2023-04-10T06:49:51;96547.78;;;4.11;100.00
71457;BME280;59263;48.160;11.752;2023-04-10T06:52:16;96543.00;;;4.21;100.00
71457;BME280;59263;48.160;11.752;2023-04-10T06:54:42;96543.97;;;4.34;100.00
71457;BME280;59263;48.160;11.752;2023-04-10T06:57:07;96532.03;;;4.49;100.00
71457;BME280;59263;48.160;11.752;2023-04-10T06:59:32;96530.47;;;4.60;100.00
71457;BME280;59263;48.160;11.752;2023-04-10T07:01:59;96538.84;;;4.78;100.00
71457;BME280;59263;48.160;11.752;2023-04-10T07:04:25;96536.03;;;4.97;100.00
71457;BME280;59263;48.160;11.752;2023-04-10T07:06:50;96531.44;;;5.17;100.00
71457;BME280;59263;48.160;11.752;2023-04-10T07:09:15;96529.41;;;5.36;100.00
71457;BME280;59263;48.160;11.752;2023-04-10T07:11:41;96517.66;;;5.46;100.00
71457;BME280;59263;48.160;11.752;2023-04-10T07:14:07;96532.00;;;5.63;100.00
71457;BME280;59263;48.160;11.752;2023-04-10T07:16:32;96516.69;;;5.76;100.00
71457;BME280;59263;48.160;11.752;2023-04-10T07:18:57;96515.06;;;5.88;100.00
71457;BME280;59263;48.160;11.752;2023-04-10T07:21:23;96511.69;;;6.01;100.00
71457;BME280;59263;48.160;11.752;2023-04-10T07:23:48;96514.56;;;6.10;100.00
71457;BME280;59263;48.160;11.752;2023-04-10T07:26:14;96513.97;;;6.19;100.00
71457;BME280;59263;48.160;11.752;2023-04-10T07:28:39;96517.72;;;6.27;100.00
71457;BME280;59263;48.160;11.752;2023-04-10T07:31:05;96514.03;;;6.44;100.00
71457;BME280;59263;48.160;11.752;2023-04-10T07:33:32;96512.63;;;6.53;100.00
71457;BME280;59263;48.160;11.752;2023-04-10T07:35:57;96524.34;;;6.57;100.00
71457;BME280;59263;48.160;11.752;2023-04-10T07:38:22;96499.03;;;6.51;100.00
71457;BME280;59263;48.160;11.752;2023-04-10T07:40:48;96519.19;;;6.70;100.00
71457;BME280;59263;48.160;11.752;2023-04-10T07:43:14;96508.50;;;6.89;100.00
71457;BME280;59263;48.160;11.752;2023-04-10T07:45:39;96522.09;;;7.03;100.00
71457;BME280;59263;48.160;11.752;2023-04-10T07:48:05;96517.03;;;7.15;100.00
71457;BME280;59263;48.160;11.752;2023-04-10T07:50:31;96524.97;;;7.24;100.00
71457;BME280;59263;48.160;11.752;2023-04-10T07:52:56;96520.44;;;7.28;100.00
71457;BME280;59263;48.160;11.752;2023-04-10T07:55:21;96519.28;;;7.32;100.00
71457;BME280;59263;48.160;11.752;2023-04-10T07:57:47;96517.31;;;7.36;100.00
71457;BME280;59263;48.160;11.752;2023-04-10T08:00:12;96510.28;;;7.38;100.00
71457;BME280;59263;48.160;11.752;2023-04-10T08:02:38;96513.56;;;7.52;100.00
71457;BME280;59263;48.160;11.752;2023-04-10T08:05:05;96507.78;;;7.62;100.00
71457;BME280;59263;48.160;11.752;2023-04-10T08:07:31;96520.31;;;7.79;100.00
71457;BME280;59263;48.160;11.752;2023-04-10T08:09:56;96507.31;;;7.81;100.00
71457;BME280;59263;48.160;11.752;2023-04-10T08:12:21;96500.25;;;7.95;100.00
71457;BME280;59263;48.160;11.752;2023-04-10T08:14:47;96511.31;;;8.09;100.00
71457;BME280;59263;48.160;11.752;2023-04-10T08:17:13;96514.16;;;8.17;100.00
71457;BME280;59263;48.160;11.752;2023-04-10T08:19:40;96505.28;;;8.21;100.00
71457;BME280;59263;48.160;11.752;2023-04-10T08:22:06;96514.91;;;8.30;100.00
71457;BME280;59263;48.160;11.752;2023-04-10T08:24:31;96508.56;;;8.47;100.00
71457;BME280;59263;48.160;11.752;2023-04-10T08:26:57;96508.72;;;8.68;100.00
71457;BME280;59263;48.160;11.752;2023-04-10T08:29:22;96500.16;;;8.79;100.00
71457;BME280;59263;48.160;11.752;2023-04-10T08:31:47;96510.66;;;9.11;100.00
71457;BME280;59263;48.160;11.752;2023-04-10T08:34:12;96506.06;;;9.37;100.00
71457;BME280;59263;48.160;11.752;2023-04-10T08:36:38;96494.91;;;9.36;100.00
71457;BME280;59263;48.160;11.752;2023-04-10T08:39:03;96496.22;;;9.31;100.00
71457;BME280;59263;48.160;11.752;2023-04-10T08:41:28;96495.50;;;9.29;100.00
71457;BME280;59263;48.160;11.752;2023-04-10T08:43:55;96493.97;;;9.37;100.00
71457;BME280;59263;48.160;11.752;2023-04-10T08:46:22;96498.88;;;9.52;100.00
71457;BME280;59263;48.160;11.752;2023-04-10T08:49:09;96497.91;;;9.64;100.00
71457;BME280;59263;48.160;11.752;2023-04-10T08:51:38;96499.81;;;9.62;100.00
71457;BME280;59263;48.160;11.752;2023-04-10T08:54:08;96492.50;;;9.78;100.00
71457;BME280;59263;48.160;11.752;2023-04-10T08:56:38;96483.78;;;9.90;100.00
71457;BME280;59263;48.160;11.752;2023-04-10T08:59:06;96491.91;;;10.18;100.00
71457;BME280;59263;48.160;11.752;2023-04-10T09:01:32;96488.34;;;10.30;100.00
71457;BME280;59263;48.160;11.752;2023-04-10T09:03:58;96481.28;;;10.32;100.00
71457;BME280;59263;48.160;11.752;2023-04-10T09:06:24;96477.56;;;10.25;100.00
71457;BME280;59263;48.160;11.752;2023-04-10T09:08:49;96485.09;;;10.17;100.00
71457;BME280;59263;48.160;11.752;2023-04-10T09:11:15;96492.31;;;10.34;100.00
71457;BME280;59263;48.160;11.752;2023-04-10T09:13:43;96481.31;;;10.53;100.00
71457;BME280;59263;48.160;11.752;2023-04-10T09:16:10;96487.50;;;10.62;100.00
71457;BME280;59263;48.160;11.752;2023-04-10T09:19:01;96478.06;;;10.82;100.00
71457;BME280;59263;48.160;11.752;2023-04-10T09:21:27;96481.22;;;10.85;100.00
71457;BME280;59263;48.160;11.752;2023-04-10T09:23:59;96467.28;;;10.77;100.00
71457;BME280;59263;48.160;11.752;2023-04-10T09:26:30;96477.00;;;10.84;100.00
71457;BME280;59263;48.160;11.752;2023-04-10T09:29:00;96469.53;;;10.91;100.00
71457;BME280;59263;48.160;11.752;2023-04-10T09:31:34;96464.34;;;10.91;100.00
71457;BME280;59263;48.160;11.752;2023-04-10T09:34:19;96468.19;;;10.97;100.00
71457;BME280;59263;48.160;11.752;2023-04-10T09:36:55;96454.63;;;11.14;100.00
71457;BME280;59263;48.160;11.752;2023-04-10T09:39:29;96454.13;;;11.20;100.00
71457;BME280;59263;48.160;11.752;2023-04-10T09:41:57;96451.94;;;11.25;100.00
71457;BME280;59263;48.160;11.752;2023-04-10T09:44:30;96454.75;;;11.43;100.00
71457;BME280;59263;48.160;11.752;2023-04-10T09:46:57;96451.06;;;11.55;100.00
71457;BME280;59263;48.160;11.752;2023-04-10T09:49:22;96447.41;;;11.58;100.00
71457;BME280;59263;48.160;11.752;2023-04-10T09:51:47;96428.97;;;11.51;100.00
71457;BME280;59263;48.160;11.752;2023-04-10T09:54:13;96441.81;;;11.62;100.00
71457;BME280;59263;48.160;11.752;2023-04-10T09:56:40;96430.25;;;11.76;100.00
71457;BME280;59263;48.160;11.752;2023-04-10T09:59:06;96429.88;;;11.91;100.00
71457;BME280;59263;48.160;11.752;2023-04-10T10:01:32;96421.53;;;12.06;100.00
71457;BME280;59263;48.160;11.752;2023-04-10T10:04:03;96419.56;;;12.57;100.00
71457;BME280;59263;48.160;11.752;2023-04-10T10:06:32;96413.53;;;12.66;100.00
71457;BME280;59263;48.160;11.752;2023-04-10T10:09:02;96415.94;;;12.77;100.00
71457;BME280;59263;48.160;11.752;2023-04-10T10:11:29;96403.94;;;13.04;100.00
71457;BME280;59263;48.160;11.752;2023-04-10T10:13:57;96408.56;;;13.10;100.00
71457;BME280;59263;48.160;11.752;2023-04-10T10:16:39;96403.28;;;13.02;100.00
71457;BME280;59263;48.160;11.752;2023-04-10T10:21:52;96385.81;;;13.22;100.00
71457;BME280;59263;48.160;11.752;2023-04-10T10:24:19;96390.69;;;13.35;100.00
71457;BME280;59263;48.160;11.752;2023-04-10T10:26:46;96384.53;;;13.36;96.21
71457;BME280;59263;48.160;11.752;2023-04-10T10:29:14;96392.75;;;13.31;100.00
71457;BME280;59263;48.160;11.752;2023-04-10T10:31:41;96386.16;;;13.37;95.46
71457;BME280;59263;48.160;11.752;2023-04-10T10:34:07;96372.75;;;13.59;97.11
71457;BME280;59263;48.160;11.752;2023-04-10T10:36:34;96376.69;;;13.63;81.12
71457;BME280;59263;48.160;11.752;2023-04-10T10:39:28;96379.00;;;13.66;82.53
71457;BME280;59263;48.160;11.752;2023-04-10T10:42:25;96379.50;;;13.70;73.76
71457;BME280;59263;48.160;11.752;2023-04-10T10:45:08;96374.34;;;14.14;69.01
71457;BME280;59263;48.160;11.752;2023-04-10T10:47:41;96360.25;;;14.68;62.24
71457;BME280;59263;48.160;11.752;2023-04-10T10:50:09;96353.13;;;14.79;69.26
71457;BME280;59263;48.160;11.752;2023-04-10T10:57:47;96346.50;;;15.43;58.67
71457;BME280;59263;48.160;11.752;2023-04-10T11:00:14;96346.47;;;15.35;52.23
71457;BME280;59263;48.160;11.752;2023-04-10T11:02:39;96351.44;;;15.62;52.97
71457;BME280;59263;48.160;11.752;2023-04-10T11:05:05;96343.00;;;15.77;51.44
71457;BME280;59263;48.160;11.752;2023-04-10T11:13:27;96304.38;;;18.52;41.02
71457;BME280;59263;48.160;11.752;2023-04-10T11:15:55;96304.78;;;19.30;40.28
71457;BME280;59263;48.160;11.752;2023-04-10T11:21:16;96299.63;;;20.98;35.91
71457;BME280;59263;48.160;11.752;2023-04-10T11:26:39;96288.28;;;20.91;32.58
71457;BME280;59263;48.160;11.752;2023-04-10T11:32:02;96282.00;;;21.80;31.48
71457;BME280;59263;48.160;11.752;2023-04-10T11:34:29;96282.78;;;22.54;31.85
71457;BME280;59263;48.160;11.752;2023-04-10T11:36:58;96270.16;;;22.69;31.28
71457;BME280;59263;48.160;11.752;2023-04-10T11:39:26;96266.03;;;21.88;31.05
71457;BME280;59263;48.160;11.752;2023-04-10T11:41:52;96264.97;;;22.42;31.43
71457;BME280;59263;48.160;11.752;2023-04-10T11:46:55;96272.28;;;22.40;30.71
71457;BME280;59263;48.160;11.752;2023-04-10T11:49:26;96259.75;;;22.16;30.50
71457;BME280;59263;48.160;11.752;2023-04-10T11:51:52;96263.81;;;22.25;30.58
71457;BME280;59263;48.160;11.752;2023-04-10T11:54:23;96260.94;;;21.60;31.51
71457;BME280;59263;48.160;11.752;2023-04-10T11:57:05;96243.53;;;21.92;30.10
71457;BME280;59263;48.160;11.752;2023-04-10T11:59:34;96245.75;;;21.82;31.06
71457;BME280;59263;48.160;11.752;2023-04-10T12:02:10;96233.38;;;21.83;31.05
71457;BME280;59263;48.160;11.752;2023-04-10T12:04:38;96236.09;;;22.61;30.39
71457;BME280;59263;48.160;11.752;2023-04-10T12:07:04;96238.59;;;22.49;30.23
71457;BME280;59263;48.160;11.752;2023-04-10T12:09:30;96230.94;;;22.21;29.04
71457;BME280;59263;48.160;11.752;2023-04-10T12:11:57;96237.44;;;22.25;31.12
71457;BME280;59263;48.160;11.752;2023-04-10T12:16:59;96239.88;;;21.93;30.96
71457;BME280;59263;48.160;11.752;2023-04-10T12:19:25;96239.47;;;22.16;30.07
71457;BME280;59263;48.160;11.752;2023-04-10T12:21:51;96234.41;;;20.87;33.50
71457;BME280;59263;48.160;11.752;2023-04-10T12:24:45;96229.50;;;20.71;33.33
71457;BME280;59263;48.160;11.752;2023-04-10T12:29:40;96235.19;;;20.74;31.27
71457;BME280;59263;48.160;11.752;2023-04-10T12:32:07;96246.44;;;19.71;34.34
71457;BME280;59263;48.160;11.752;2023-04-10T12:34:33;96239.53;;;19.27;35.20
71457;BME280;59263;48.160;11.752;2023-04-10T12:36:58;96232.16;;;18.65;35.74
71457;BME280;59263;48.160;11.752;2023-04-10T12:39:24;96219.38;;;18.10;36.93
71457;BME280;59263;48.160;11.752;2023-04-10T12:41:49;96233.06;;;18.12;38.28
71457;BME280;59263;48.160;11.752;2023-04-10T12:44:15;96219.81;;;17.61;37.38
71457;BME280;59263;48.160;11.752;2023-04-10T12:46:42;96234.47;;;17.48;38.30
71457;BME280;59263;48.160;11.752;2023-04-10T12:49:14;96222.84;;;17.50;39.87
71457;BME280;59263;48.160;11.752;2023-04-10T12:51:47;96230.88;;;17.26;39.79
71457;BME280;59263;48.160;11.752;2023-04-10T12:54:28;96215.75;;;17.36;38.86
71457;BME280;59263;48.160;11.752;2023-04-10T12:56:54;96213.06;;;17.44;39.10
71457;BME280;59263;48.160;11.752;2023-04-10T12:59:20;96214.56;;;17.38;38.91
71457;BME280;59263;48.160;11.752;2023-04-10T13:01:45;96204.03;;;17.32;40.82
71457;BME280;59263;48.160;11.752;2023-04-10T13:04:10;96211.22;;;16.76;39.78
71457;BME280;59263;48.160;11.752;2023-04-10T13:06:43;96204.53;;;16.34;40.12
71457;BME280;59263;48.160;11.752;2023-04-10T13:09:11;96191.91;;;16.06;42.59
71457;BME280;59263;48.160;11.752;2023-04-10T13:11:36;96200.47;;;15.67;40.44
71457;BME280;59263;48.160;11.752;2023-04-10T13:14:02;96194.25;;;15.52;44.13
71457;BME280;59263;48.160;11.752;2023-04-10T13:16:27;96196.53;;;15.55;44.49
71457;BME280;59263;48.160;11.752;2023-04-10T13:18:52;96196.84;;;15.28;45.03
71457;BME280;59263;48.160;11.752;2023-04-10T13:21:18;96196.53;;;15.31;43.73
71457;BME280;59263;48.160;11.752;2023-04-10T13:23:47;96183.84;;;15.36;41.86
71457;BME280;59263;48.160;11.752;2023-04-10T13:26:13;96185.78;;;15.34;41.32